createdAt,value
2023-03-31T00:00:11.888Z,99353.52
2023-03-31T00:05:04.941Z,99355.60
2023-03-31T00:10:10.323Z,99359.41
2023-03-31T00:15:09.445Z,99362.36
2023-03-31T00:20:06.099Z,99355.98
2023-03-31T00:24:58.949Z,99356.32
2023-03-31T00:29:53.186Z,99356.33
2023-03-31T00:34:47.087Z,99359.62
2023-03-31T00:39:40.398Z,99361.70
2023-03-31T00:44:34.521Z,99360.14
2023-03-31T00:49:36.484Z,99363.09
2023-03-31T00:54:31.113Z,99358.76
2023-03-31T00:59:28.748Z,99356.35
2023-03-31T01:04:22.886Z,99352.02
2023-03-31T01:09:17.080Z,99352.03
2023-03-31T01:14:11.130Z,99348.23
2023-03-31T01:19:03.948Z,99343.03
2023-03-31T01:24:38.069Z,99341.65
2023-03-31T01:30:16.287Z,99339.40
2023-03-31T01:35:28.521Z,99336.30
2023-03-31T01:40:39.496Z,99331.27
2023-03-31T01:45:51.139Z,99333.69
2023-03-31T01:50:49.903Z,99328.86
2023-03-31T01:55:52.963Z,99336.29
2023-03-31T02:01:01.999Z,99338.88
2023-03-31T02:05:58.404Z,99345.79
2023-03-31T02:10:53.831Z,99344.06
2023-03-31T02:15:58.140Z,99345.63
2023-03-31T02:20:54.866Z,99345.98
2023-03-31T02:25:54.822Z,99345.97
2023-03-31T02:30:56.271Z,99343.90
2023-03-31T02:35:49.262Z,99344.94
2023-03-31T02:40:42.077Z,99346.14
2023-03-31T02:45:45.634Z,99347.01
2023-03-31T02:51:07.686Z,99346.84
2023-03-31T02:56:39.280Z,99343.04
2023-03-31T03:01:47.373Z,99341.31
2023-03-31T03:06:46.131Z,99339.92
2023-03-31T03:11:53.505Z,99341.64
2023-03-31T03:16:51.817Z,99341.83
2023-03-31T03:21:46.132Z,99349.60
2023-03-31T03:26:38.914Z,99359.97
2023-03-31T03:31:33.793Z,99366.02
2023-03-31T03:36:27.047Z,99369.14
2023-03-31T03:41:19.939Z,99373.11
2023-03-31T03:46:13.533Z,99375.53
2023-03-31T03:51:07.458Z,99374.67
2023-03-31T03:56:01.721Z,99381.59
2023-03-31T04:00:54.583Z,99385.91
2023-03-31T04:05:49.999Z,99387.63
2023-03-31T04:10:50.738Z,99391.27
2023-03-31T04:15:43.976Z,99391.25
2023-03-31T04:20:38.030Z,99388.31
2023-03-31T04:25:30.881Z,99391.74
2023-03-31T04:30:30.940Z,99392.59
2023-03-31T04:35:25.550Z,99390.00
2023-03-31T04:40:18.648Z,99383.40
2023-03-31T04:45:14.580Z,99386.83
2023-03-31T04:50:11.509Z,99383.38
2023-03-31T04:55:07.605Z,99377.70
2023-03-31T05:00:00.459Z,99370.45
2023-03-31T05:04:53.644Z,99371.98
2023-03-31T05:09:47.105Z,99372.48
2023-03-31T05:14:40.890Z,99367.65
2023-03-31T05:19:33.795Z,99373.70
2023-03-31T05:24:28.381Z,99371.46
2023-03-31T05:29:22.081Z,99377.93
2023-03-31T05:34:16.430Z,99371.91
2023-03-31T05:39:09.618Z,99364.64
2023-03-31T05:44:02.535Z,99359.11
2023-03-31T05:48:56.542Z,99359.80
2023-03-31T05:53:50.389Z,99354.94
2023-03-31T05:58:43.409Z,99354.39
2023-03-31T06:03:38.028Z,99354.02
2023-03-31T06:08:31.112Z,99350.20
2023-03-31T06:13:24.734Z,99351.70
2023-03-31T06:18:17.626Z,99344.77
2023-03-31T06:23:12.813Z,99343.89
2023-03-31T06:28:06.414Z,99350.81
2023-03-31T06:32:59.434Z,99352.00
2023-03-31T06:37:52.580Z,99350.57
2023-03-31T06:42:45.704Z,99342.57
2023-03-31T06:47:38.952Z,99343.91
2023-03-31T06:52:33.390Z,99339.34
2023-03-31T06:57:26.186Z,99338.14
2023-03-31T07:02:19.007Z,99339.38
2023-03-31T07:07:11.872Z,99333.18
2023-03-31T07:12:05.916Z,99327.72
2023-03-31T07:16:59.344Z,99332.27
2023-03-31T07:21:53.307Z,99327.75
2023-03-31T07:26:46.119Z,99332.07
2023-03-31T07:31:39.001Z,99337.23
2023-03-31T07:36:32.620Z,99328.14
2023-03-31T07:41:26.514Z,99324.84
2023-03-31T07:46:28.303Z,99316.96
2023-03-31T07:51:23.628Z,99308.88
2023-03-31T07:56:18.152Z,99303.36
2023-03-31T08:01:12.418Z,99306.35
2023-03-31T08:06:05.858Z,99302.10
2023-03-31T08:10:59.194Z,99299.15
2023-03-31T08:15:53.417Z,99290.84
2023-03-31T08:20:50.013Z,99279.64
2023-03-31T08:25:43.209Z,99281.71
2023-03-31T08:30:38.168Z,99274.72
2023-03-31T08:35:30.998Z,99268.98
2023-03-31T08:40:27.046Z,99270.48
2023-03-31T08:45:26.726Z,99272.96
2023-03-31T08:50:28.612Z,99269.52
2023-03-31T08:55:29.341Z,99271.48
2023-03-31T09:00:22.306Z,99268.07
2023-03-31T09:05:15.131Z,99261.94
2023-03-31T09:10:14.039Z,99257.96
2023-03-31T09:15:25.811Z,99247.80
2023-03-31T09:20:18.654Z,99243.11
2023-03-31T09:25:21.162Z,99238.60
2023-03-31T09:30:16.918Z,99230.84
2023-03-31T09:35:22.860Z,99227.25
2023-03-31T09:40:28.376Z,99222.61
2023-03-31T09:45:22.071Z,99222.38
2023-03-31T09:50:16.775Z,99219.04
2023-03-31T09:55:38.407Z,99214.77
2023-03-31T10:00:32.358Z,99209.23
2023-03-31T10:05:31.043Z,99208.81
2023-03-31T10:10:32.378Z,99204.45
2023-03-31T10:15:29.528Z,99191.15
2023-03-31T10:20:33.635Z,99182.42
2023-03-31T10:25:29.793Z,99184.39
2023-03-31T10:30:25.900Z,99169.63
2023-03-31T10:35:34.715Z,99164.58
2023-03-31T10:40:30.632Z,99167.33
2023-03-31T10:45:37.326Z,99161.13
2023-03-31T10:50:34.423Z,99156.15
2023-03-31T10:55:37.537Z,99153.84
2023-03-31T11:00:38.045Z,99146.84
2023-03-31T11:05:44.437Z,99147.78
2023-03-31T11:10:59.302Z,99137.41
2023-03-31T11:16:03.932Z,99131.42
2023-03-31T11:21:27.034Z,99128.58
2023-03-31T11:26:46.576Z,99129.25
2023-03-31T11:31:42.338Z,99119.88
2023-03-31T11:36:52.482Z,99109.63
2023-03-31T11:41:51.885Z,99108.34
2023-03-31T11:46:49.527Z,99095.21
2023-03-31T11:51:54.584Z,99094.91
2023-03-31T11:56:47.835Z,99080.14
2023-03-31T12:01:54.130Z,99078.49
2023-03-31T12:06:49.453Z,99068.92
2023-03-31T12:12:06.568Z,99063.23
2023-03-31T12:17:09.411Z,99061.27
2023-03-31T12:22:12.635Z,99060.89
2023-03-31T12:27:41.811Z,99056.38
2023-03-31T12:32:39.640Z,99049.35
2023-03-31T12:37:54.468Z,99039.14
2023-03-31T12:42:47.343Z,99036.59
2023-03-31T12:47:46.393Z,99024.07
2023-03-31T12:53:11.763Z,99013.16
2023-03-31T12:58:27.000Z,99014.84
2023-03-31T13:03:46.787Z,99016.30
2023-03-31T13:08:59.446Z,99007.66
2023-03-31T13:14:04.923Z,98999.30
2023-03-31T13:18:58.616Z,98988.52
2023-03-31T13:23:52.511Z,98979.67
2023-03-31T13:28:45.327Z,98975.14
2023-03-31T13:33:57.155Z,98972.23
2023-03-31T13:39:27.454Z,98963.70
2023-03-31T13:44:42.302Z,98963.59
2023-03-31T13:50:00.035Z,98958.95
2023-03-31T13:55:02.139Z,98961.73
2023-03-31T14:00:14.534Z,98957.88
2023-03-31T14:05:35.376Z,98950.24
2023-03-31T14:10:38.248Z,98937.23
2023-03-31T14:15:32.401Z,98923.55
2023-03-31T14:20:53.505Z,98924.49
2023-03-31T14:26:17.071Z,98919.52
2023-03-31T14:31:35.614Z,98906.63
2023-03-31T14:37:01.846Z,98897.20
2023-03-31T14:41:57.018Z,98899.41
2023-03-31T14:46:49.854Z,98899.66
2023-03-31T14:51:45.854Z,98898.70
2023-03-31T14:56:41.618Z,98893.85
2023-03-31T15:01:38.072Z,98895.35
2023-03-31T15:06:33.223Z,98891.14
2023-03-31T15:11:28.983Z,98894.41
2023-03-31T15:16:42.226Z,98885.72
2023-03-31T15:21:39.178Z,98878.73
2023-03-31T15:26:41.727Z,98879.98
2023-03-31T15:31:34.968Z,98891.75
2023-03-31T15:36:31.784Z,98887.63
2023-03-31T15:46:52.038Z,98919.61
2023-03-31T15:51:47.956Z,98915.70
2023-03-31T15:56:46.296Z,98911.91
2023-03-31T16:01:45.589Z,98903.00
2023-03-31T16:06:59.801Z,98890.50
2023-03-31T16:11:56.801Z,98874.41
2023-03-31T16:16:55.822Z,98860.86
2023-03-31T16:21:52.833Z,98840.08
2023-03-31T16:26:46.115Z,98832.55
2023-03-31T16:31:41.597Z,98846.45
2023-03-31T16:36:34.758Z,98839.84
2023-03-31T16:41:30.129Z,98836.67
2023-03-31T16:46:24.825Z,98837.95
2023-03-31T16:51:17.921Z,98834.77
2023-03-31T16:56:12.879Z,98827.08
2023-03-31T17:01:07.310Z,98828.57
2023-03-31T17:06:07.098Z,98824.45
2023-03-31T17:11:07.052Z,98819.12
2023-03-31T17:16:13.464Z,98811.55
2023-03-31T17:21:13.805Z,98805.74
2023-03-31T17:26:09.772Z,98797.67
2023-03-31T17:31:03.456Z,98797.40
2023-03-31T17:35:59.560Z,98797.14
2023-03-31T17:40:52.451Z,98795.60
2023-03-31T17:45:45.250Z,98792.40
2023-03-31T17:50:38.449Z,98791.43
2023-03-31T17:55:31.608Z,98806.92
2023-03-31T18:00:24.618Z,98844.19
2023-03-31T18:05:18.416Z,98842.86
2023-03-31T18:10:12.169Z,98840.29
2023-03-31T18:15:07.142Z,98837.68
2023-03-31T18:20:00.275Z,98833.53
2023-03-31T18:24:53.147Z,98825.39
2023-03-31T18:29:46.222Z,98824.02
2023-03-31T18:34:39.214Z,98822.98
2023-03-31T18:39:32.183Z,98819.36
2023-03-31T18:44:25.094Z,98814.55
2023-03-31T18:49:20.117Z,98815.60
2023-03-31T18:54:13.205Z,98807.84
2023-03-31T18:59:06.026Z,98802.86
2023-03-31T19:03:59.186Z,98797.36
2023-03-31T19:08:52.097Z,98788.02
2023-03-31T19:13:45.457Z,98782.83
2023-03-31T19:18:38.648Z,98777.16
2023-03-31T19:23:32.850Z,98775.95
2023-03-31T19:28:26.818Z,98770.80
2023-03-31T19:33:21.793Z,98767.70
2023-03-31T19:38:16.118Z,98757.16
2023-03-31T19:43:20.925Z,98752.65
2023-03-31T19:48:14.054Z,98743.80
2023-03-31T19:53:07.039Z,98742.79
2023-03-31T19:57:59.830Z,98732.44
2023-03-31T20:02:52.812Z,98722.42
2023-03-31T20:07:46.174Z,98714.67
2023-03-31T20:12:39.454Z,98707.45
2023-03-31T20:17:32.236Z,98715.51
2023-03-31T20:22:27.170Z,98718.83
2023-03-31T20:27:20.210Z,98720.59
2023-03-31T20:32:13.051Z,98714.17
2023-03-31T20:37:05.863Z,98712.45
2023-03-31T20:42:06.399Z,98706.06
2023-03-31T20:47:02.454Z,98700.93
2023-03-31T20:51:56.679Z,98698.69
2023-03-31T20:56:50.580Z,98687.31
2023-03-31T21:01:45.329Z,98682.49
2023-03-31T21:06:44.301Z,98677.84
2023-03-31T21:11:37.262Z,98674.39
2023-03-31T21:16:30.160Z,98676.30
2023-03-31T21:21:25.095Z,98673.35
2023-03-31T21:26:18.139Z,98673.52
2023-03-31T21:31:22.719Z,98673.31
2023-03-31T21:36:18.640Z,98672.06
2023-03-31T21:41:23.436Z,98672.20
2023-03-31T21:46:19.275Z,98664.76
2023-03-31T21:51:13.535Z,98656.95
2023-03-31T21:56:06.940Z,98658.35
2023-03-31T22:01:05.360Z,98656.64
2023-03-31T22:05:59.600Z,98656.11
2023-03-31T22:10:53.267Z,98647.63
2023-03-31T22:15:46.852Z,98645.71
2023-03-31T22:20:41.198Z,98643.85
2023-03-31T22:25:34.778Z,98633.84
2023-03-31T22:30:29.699Z,98637.30
2023-03-31T22:35:23.042Z,98632.29
2023-03-31T22:40:15.906Z,98635.90
2023-03-31T22:45:09.411Z,98636.06
2023-03-31T22:50:02.202Z,98630.18
2023-03-31T22:54:55.088Z,98632.08
2023-03-31T22:59:48.094Z,98624.48
2023-03-31T23:04:40.889Z,98625.20
2023-03-31T23:09:35.079Z,98618.48
2023-03-31T23:14:28.295Z,98615.39
2023-03-31T23:19:21.066Z,98605.02
2023-03-31T23:24:13.911Z,98609.35
2023-03-31T23:29:06.752Z,98603.99
2023-03-31T23:34:00.603Z,98602.27
2023-03-31T23:38:55.663Z,98600.70
2023-03-31T23:43:48.483Z,98604.17
2023-03-31T23:48:41.970Z,98600.21
2023-03-31T23:53:36.193Z,98594.36
2023-03-31T23:58:33.082Z,98594.55
